TAM3122 SBSP-SBRJ
Flight info
| Callsign | TAM3122 |
|---|---|
| Flight time | 0h 38m |
| Altitude | 25000 |
| Route | NIBRU UZ171 KEVUN |
| Aircraft | A319/M-SDE3FGHIRWY/LB1 |
Departure
| Time | 2026-05-06 21:13 |
|---|---|
| Airport | Congonhas–Deputado Freitas Nobre Airport (SBSP) |
Arrival
| Time | 2026-05-06 21:52 |
|---|---|
| Airport | Santos Dumont Airport (SBRJ) |
| Time | Latitude | Longitude | Altitude | Speed | Heading |
|---|---|---|---|---|---|
| 2026-05-06 20:52 | -23.62422 | -46.66029 | 2601 ft | 0 kts | 237° |
| 2026-05-06 21:06 | -23.62419 | -46.66024 | 2600 ft | 3 kts | 237° |
| 2026-05-06 21:07 | -23.62408 | -46.66003 | 2600 ft | 3 kts | 250° |
| 2026-05-06 21:07 | -23.62404 | -46.65986 | 2600 ft | 3 kts | 313° |
| 2026-05-06 21:07 | -23.62420 | -46.65974 | 2600 ft | 2 kts | 327° |
| 2026-05-06 21:07 | -23.62421 | -46.65973 | 2600 ft | 0 kts | 327° |
| 2026-05-06 21:10 | -23.62420 | -46.65974 | 2600 ft | 1 kts | 327° |
| 2026-05-06 21:10 | -23.62410 | -46.65975 | 2600 ft | 2 kts | 353° |
| 2026-05-06 21:10 | -23.62391 | -46.65978 | 2600 ft | 3 kts | 353° |
| 2026-05-06 21:10 | -23.62363 | -46.65982 | 2600 ft | 5 kts | 352° |
| 2026-05-06 21:11 | -23.62329 | -46.65989 | 2600 ft | 5 kts | 342° |
| 2026-05-06 21:11 | -23.62295 | -46.66011 | 2600 ft | 6 kts | 326° |
| 2026-05-06 21:11 | -23.62257 | -46.66039 | 2600 ft | 7 kts | 327° |
| 2026-05-06 21:11 | -23.62211 | -46.66066 | 2599 ft | 8 kts | 332° |
| 2026-05-06 21:12 | -23.62159 | -46.66098 | 2599 ft | 9 kts | 329° |
| 2026-05-06 21:12 | -23.62100 | -46.66133 | 2598 ft | 11 kts | 340° |
| 2026-05-06 21:12 | -23.62030 | -46.66107 | 2588 ft | 12 kts | 56° |
| 2026-05-06 21:12 | -23.62071 | -46.66059 | 2591 ft | 11 kts | 147° |
| 2026-05-06 21:13 | -23.62313 | -46.65891 | 2601 ft | 76 kts | 148° |
| 2026-05-06 21:13 | -23.62963 | -46.65445 | 2615 ft | 143 kts | 148° |
| 2026-05-06 21:13 | -23.63827 | -46.64852 | 3152 ft | 147 kts | 145° |
| 2026-05-06 21:13 | -23.64662 | -46.64200 | 3655 ft | 153 kts | 134° |
| 2026-05-06 21:14 | -23.65297 | -46.63182 | 3876 ft | 174 kts | 118° |
| 2026-05-06 21:14 | -23.65897 | -46.61935 | 4131 ft | 197 kts | 116° |
| 2026-05-06 21:14 | -23.66558 | -46.60518 | 4399 ft | 223 kts | 116° |
| 2026-05-06 21:14 | -23.67307 | -46.58935 | 4803 ft | 247 kts | 116° |
| 2026-05-06 21:15 | -23.68137 | -46.57207 | 5361 ft | 264 kts | 117° |
| 2026-05-06 21:15 | -23.69015 | -46.55411 | 6150 ft | 272 kts | 117° |
| 2026-05-06 21:15 | -23.69925 | -46.53577 | 6940 ft | 278 kts | 117° |
| 2026-05-06 21:15 | -23.70856 | -46.51716 | 7771 ft | 282 kts | 117° |
| 2026-05-06 21:16 | -23.71585 | -46.49728 | 8562 ft | 285 kts | 101° |
| 2026-05-06 21:16 | -23.71796 | -46.47574 | 9369 ft | 287 kts | 86° |
| 2026-05-06 21:16 | -23.71540 | -46.45401 | 10193 ft | 290 kts | 79° |
| 2026-05-06 21:16 | -23.71215 | -46.43167 | 10614 ft | 309 kts | 79° |
| 2026-05-06 21:17 | -23.70868 | -46.40767 | 10843 ft | 331 kts | 79° |
| 2026-05-06 21:17 | -23.70512 | -46.38278 | 11359 ft | 340 kts | 80° |
| 2026-05-06 21:17 | -23.70143 | -46.35685 | 12070 ft | 342 kts | 81° |
| 2026-05-06 21:17 | -23.69779 | -46.33105 | 12725 ft | 347 kts | 81° |
| 2026-05-06 21:18 | -23.69415 | -46.30526 | 13387 ft | 350 kts | 81° |
| 2026-05-06 21:18 | -23.69042 | -46.27889 | 14035 ft | 353 kts | 82° |
| 2026-05-06 21:18 | -23.68664 | -46.25227 | 14566 ft | 357 kts | 82° |
| 2026-05-06 21:18 | -23.68279 | -46.22538 | 15102 ft | 361 kts | 82° |
| 2026-05-06 21:19 | -23.67887 | -46.19818 | 15662 ft | 364 kts | 82° |
| 2026-05-06 21:19 | -23.67493 | -46.17073 | 16206 ft | 368 kts | 83° |
| 2026-05-06 21:19 | -23.67097 | -46.14298 | 16744 ft | 372 kts | 82° |
| 2026-05-06 21:19 | -23.66696 | -46.11496 | 17277 ft | 376 kts | 83° |
| 2026-05-06 21:20 | -23.66290 | -46.08663 | 17820 ft | 380 kts | 83° |
| 2026-05-06 21:20 | -23.66020 | -46.06773 | 18185 ft | 382 kts | 83° |
| 2026-05-06 21:20 | -23.65476 | -46.02954 | 18833 ft | 387 kts | 83° |
| 2026-05-06 21:20 | -23.65059 | -46.00038 | 19312 ft | 391 kts | 83° |
| 2026-05-06 21:21 | -23.64634 | -45.97094 | 19798 ft | 395 kts | 83° |
| 2026-05-06 21:21 | -23.64200 | -45.94123 | 20286 ft | 399 kts | 83° |
| 2026-05-06 21:21 | -23.63768 | -45.91123 | 20771 ft | 402 kts | 83° |
| 2026-05-06 21:21 | -23.63331 | -45.88092 | 21258 ft | 406 kts | 83° |
| 2026-05-06 21:22 | -23.62890 | -45.85032 | 21745 ft | 410 kts | 83° |
| 2026-05-06 21:22 | -23.62440 | -45.81948 | 22230 ft | 414 kts | 83° |
| 2026-05-06 21:22 | -23.61983 | -45.78839 | 22695 ft | 417 kts | 83° |
| 2026-05-06 21:22 | -23.61523 | -45.75694 | 23144 ft | 421 kts | 83° |
| 2026-05-06 21:23 | -23.61063 | -45.72531 | 23594 ft | 424 kts | 83° |
| 2026-05-06 21:23 | -23.60754 | -45.70414 | 23864 ft | 427 kts | 83° |
| 2026-05-06 21:23 | -23.60282 | -45.67206 | 24217 ft | 430 kts | 83° |
| 2026-05-06 21:23 | -23.59808 | -45.63975 | 24586 ft | 433 kts | 84° |
| 2026-05-06 21:24 | -23.59336 | -45.60719 | 24969 ft | 436 kts | 84° |
| 2026-05-06 21:24 | -23.58865 | -45.57442 | 25124 ft | 438 kts | 83° |
| 2026-05-06 21:24 | -23.58391 | -45.54196 | 25164 ft | 430 kts | 83° |
| 2026-05-06 21:24 | -23.57912 | -45.50985 | 25165 ft | 428 kts | 83° |
| 2026-05-06 21:25 | -23.57435 | -45.47788 | 25170 ft | 427 kts | 83° |
| 2026-05-06 21:25 | -23.56915 | -45.44601 | 25169 ft | 428 kts | 81° |
| 2026-05-06 21:25 | -23.56293 | -45.41431 | 25168 ft | 428 kts | 79° |
| 2026-05-06 21:25 | -23.55602 | -45.38274 | 25171 ft | 428 kts | 78° |
| 2026-05-06 21:26 | -23.54888 | -45.35122 | 25169 ft | 428 kts | 78° |
| 2026-05-06 21:26 | -23.54178 | -45.31970 | 25166 ft | 428 kts | 79° |
| 2026-05-06 21:26 | -23.53488 | -45.28859 | 25170 ft | 428 kts | 79° |
| 2026-05-06 21:26 | -23.52799 | -45.25703 | 25169 ft | 427 kts | 79° |
| 2026-05-06 21:27 | -23.52127 | -45.22552 | 25172 ft | 427 kts | 79° |
| 2026-05-06 21:27 | -23.51463 | -45.19396 | 25170 ft | 427 kts | 79° |
| 2026-05-06 21:27 | -23.50802 | -45.16244 | 25162 ft | 427 kts | 79° |
| 2026-05-06 21:27 | -23.50136 | -45.13092 | 25161 ft | 427 kts | 79° |
| 2026-05-06 21:28 | -23.49466 | -45.09942 | 25162 ft | 427 kts | 79° |
| 2026-05-06 21:28 | -23.48796 | -45.06796 | 25161 ft | 427 kts | 79° |
| 2026-05-06 21:28 | -23.48122 | -45.03644 | 25159 ft | 427 kts | 79° |
| 2026-05-06 21:28 | -23.47447 | -45.00498 | 25158 ft | 427 kts | 79° |
| 2026-05-06 21:29 | -23.46768 | -44.97351 | 25157 ft | 427 kts | 79° |
| 2026-05-06 21:29 | -23.46090 | -44.94210 | 25162 ft | 427 kts | 79° |
| 2026-05-06 21:29 | -23.45406 | -44.91064 | 25154 ft | 426 kts | 79° |
| 2026-05-06 21:29 | -23.44713 | -44.87925 | 25155 ft | 426 kts | 78° |
| 2026-05-06 21:30 | -23.44008 | -44.84784 | 25031 ft | 427 kts | 78° |
| 2026-05-06 21:30 | -23.43307 | -44.81655 | 24563 ft | 424 kts | 78° |
| 2026-05-06 21:30 | -23.42608 | -44.78536 | 24067 ft | 423 kts | 78° |
| 2026-05-06 21:30 | -23.41915 | -44.75435 | 23544 ft | 420 kts | 78° |
| 2026-05-06 21:31 | -23.41229 | -44.72360 | 23046 ft | 416 kts | 78° |
| 2026-05-06 21:31 | -23.40548 | -44.69312 | 22553 ft | 412 kts | 78° |
| 2026-05-06 21:31 | -23.39875 | -44.66300 | 22091 ft | 408 kts | 78° |
| 2026-05-06 21:31 | -23.39216 | -44.63352 | 21622 ft | 404 kts | 78° |
| 2026-05-06 21:32 | -23.38548 | -44.60358 | 21137 ft | 400 kts | 78° |
| 2026-05-06 21:32 | -23.37251 | -44.54553 | 20162 ft | 394 kts | 78° |
| 2026-05-06 21:32 | -23.36601 | -44.51670 | 19660 ft | 391 kts | 78° |
| 2026-05-06 21:33 | -23.35953 | -44.48806 | 19142 ft | 388 kts | 78° |
| 2026-05-06 21:33 | -23.35310 | -44.45962 | 18634 ft | 386 kts | 78° |
| 2026-05-06 21:33 | -23.34664 | -44.43136 | 18077 ft | 383 kts | 76° |
| 2026-05-06 21:33 | -23.33713 | -44.40441 | 17577 ft | 380 kts | 66° |
| 2026-05-06 21:34 | -23.32596 | -44.37850 | 17074 ft | 375 kts | 66° |
| 2026-05-06 21:34 | -23.31498 | -44.35289 | 16575 ft | 371 kts | 66° |
| 2026-05-06 21:34 | -23.30410 | -44.32760 | 16085 ft | 367 kts | 66° |
| 2026-05-06 21:34 | -23.29333 | -44.30262 | 15599 ft | 363 kts | 66° |
| 2026-05-06 21:35 | -23.28267 | -44.27786 | 15111 ft | 359 kts | 65° |
| 2026-05-06 21:35 | -23.27213 | -44.25333 | 14627 ft | 356 kts | 66° |
| 2026-05-06 21:35 | -23.26168 | -44.22907 | 14158 ft | 353 kts | 65° |
| 2026-05-06 21:35 | -23.25133 | -44.20496 | 13636 ft | 350 kts | 65° |
| 2026-05-06 21:36 | -23.24121 | -44.18137 | 13151 ft | 346 kts | 65° |
| 2026-05-06 21:36 | -23.23106 | -44.15785 | 12679 ft | 341 kts | 65° |
| 2026-05-06 21:36 | -23.22103 | -44.13462 | 12215 ft | 337 kts | 65° |
| 2026-05-06 21:36 | -23.21113 | -44.11167 | 11760 ft | 333 kts | 65° |
| 2026-05-06 21:37 | -23.20135 | -44.08894 | 11299 ft | 330 kts | 65° |
| 2026-05-06 21:37 | -23.19154 | -44.06654 | 10960 ft | 327 kts | 64° |
| 2026-05-06 21:37 | -23.18138 | -44.04433 | 10750 ft | 328 kts | 63° |
| 2026-05-06 21:37 | -23.17120 | -44.02241 | 10553 ft | 319 kts | 63° |
| 2026-05-06 21:38 | -23.16144 | -44.00134 | 10432 ft | 306 kts | 63° |
| 2026-05-06 21:38 | -23.15217 | -43.98100 | 10304 ft | 295 kts | 64° |
| 2026-05-06 21:38 | -23.14356 | -43.96113 | 10150 ft | 288 kts | 64° |
| 2026-05-06 21:38 | -23.13529 | -43.94166 | 10024 ft | 288 kts | 65° |
| 2026-05-06 21:39 | -23.13410 | -43.93883 | 10012 ft | 287 kts | 65° |
| 2026-05-06 21:39 | -23.12700 | -43.92200 | 9881 ft | 288 kts | 65° |
| 2026-05-06 21:39 | -23.11863 | -43.90223 | 9719 ft | 288 kts | 65° |
| 2026-05-06 21:39 | -23.11021 | -43.88248 | 9557 ft | 287 kts | 65° |
| 2026-05-06 21:40 | -23.10182 | -43.86283 | 9402 ft | 287 kts | 65° |
| 2026-05-06 21:40 | -23.09342 | -43.84319 | 9249 ft | 286 kts | 65° |
| 2026-05-06 21:40 | -23.08504 | -43.82361 | 9093 ft | 286 kts | 65° |
| 2026-05-06 21:40 | -23.07672 | -43.80416 | 8934 ft | 283 kts | 64° |
| 2026-05-06 21:41 | -23.06846 | -43.78491 | 8779 ft | 281 kts | 64° |
| 2026-05-06 21:41 | -23.06020 | -43.76569 | 8630 ft | 281 kts | 65° |
| 2026-05-06 21:41 | -23.05196 | -43.74651 | 8482 ft | 280 kts | 65° |
| 2026-05-06 21:41 | -23.04375 | -43.72744 | 8328 ft | 278 kts | 65° |
| 2026-05-06 21:42 | -23.03558 | -43.70839 | 8182 ft | 279 kts | 65° |
| 2026-05-06 21:42 | -23.02738 | -43.68930 | 7986 ft | 279 kts | 64° |
| 2026-05-06 21:42 | -23.01913 | -43.67035 | 7719 ft | 276 kts | 64° |
| 2026-05-06 21:42 | -23.01087 | -43.65151 | 7402 ft | 276 kts | 64° |
| 2026-05-06 21:43 | -23.00262 | -43.63275 | 7142 ft | 275 kts | 64° |
| 2026-05-06 21:43 | -22.99439 | -43.61403 | 6931 ft | 274 kts | 64° |
| 2026-05-06 21:43 | -22.98629 | -43.59560 | 6788 ft | 275 kts | 64° |
| 2026-05-06 21:43 | -22.97805 | -43.57686 | 6631 ft | 274 kts | 64° |
| 2026-05-06 21:44 | -22.96985 | -43.55823 | 6468 ft | 273 kts | 64° |
| 2026-05-06 21:44 | -22.96168 | -43.53964 | 6302 ft | 272 kts | 64° |
| 2026-05-06 21:44 | -22.95356 | -43.52109 | 6141 ft | 272 kts | 64° |
| 2026-05-06 21:44 | -22.94541 | -43.50255 | 5956 ft | 272 kts | 64° |
| 2026-05-06 21:45 | -22.93741 | -43.48399 | 5629 ft | 271 kts | 64° |
| 2026-05-06 21:45 | -22.92957 | -43.46555 | 5333 ft | 268 kts | 65° |
| 2026-05-06 21:45 | -22.92191 | -43.44735 | 5043 ft | 265 kts | 65° |
| 2026-05-06 21:45 | -22.91425 | -43.42916 | 4743 ft | 264 kts | 65° |
| 2026-05-06 21:46 | -22.90674 | -43.41138 | 4452 ft | 253 kts | 65° |
| 2026-05-06 21:46 | -22.89958 | -43.39446 | 4186 ft | 241 kts | 65° |
| 2026-05-06 21:46 | -22.89281 | -43.37843 | 3941 ft | 227 kts | 66° |
| 2026-05-06 21:46 | -22.88646 | -43.36335 | 3703 ft | 213 kts | 65° |
| 2026-05-06 21:47 | -22.88128 | -43.34910 | 3475 ft | 200 kts | 75° |
| 2026-05-06 21:47 | -22.87782 | -43.33521 | 3320 ft | 181 kts | 74° |
| 2026-05-06 21:47 | -22.87453 | -43.32232 | 3079 ft | 169 kts | 73° |
| 2026-05-06 21:47 | -22.87155 | -43.31067 | 2906 ft | 156 kts | 73° |
| 2026-05-06 21:48 | -22.86873 | -43.29971 | 2740 ft | 149 kts | 73° |
| 2026-05-06 21:48 | -22.86739 | -43.28875 | 2588 ft | 146 kts | 88° |
| 2026-05-06 21:48 | -22.86748 | -43.27775 | 2427 ft | 144 kts | 88° |
| 2026-05-06 21:48 | -22.86754 | -43.26733 | 2277 ft | 135 kts | 89° |
| 2026-05-06 21:49 | -22.86758 | -43.25722 | 2130 ft | 133 kts | 89° |
| 2026-05-06 21:49 | -22.86763 | -43.24728 | 1989 ft | 131 kts | 89° |
| 2026-05-06 21:49 | -22.86767 | -43.23743 | 1846 ft | 130 kts | 89° |
| 2026-05-06 21:49 | -22.86771 | -43.22760 | 1688 ft | 130 kts | 89° |
| 2026-05-06 21:50 | -22.86774 | -43.21779 | 1514 ft | 130 kts | 89° |
| 2026-05-06 21:50 | -22.86778 | -43.20798 | 1316 ft | 130 kts | 90° |
| 2026-05-06 21:50 | -22.86782 | -43.19819 | 1149 ft | 130 kts | 90° |
| 2026-05-06 21:50 | -22.86786 | -43.18838 | 985 ft | 130 kts | 91° |
| 2026-05-06 21:51 | -22.86936 | -43.17875 | 824 ft | 130 kts | 113° |
| 2026-05-06 21:51 | -22.87440 | -43.17067 | 670 ft | 130 kts | 138° |
| 2026-05-06 21:51 | -22.88191 | -43.16560 | 506 ft | 127 kts | 160° |
| 2026-05-06 21:51 | -22.89058 | -43.16413 | 353 ft | 126 kts | 178° |
| 2026-05-06 21:52 | -22.89917 | -43.16357 | 172 ft | 124 kts | 177° |
| 2026-05-06 21:52 | -22.90763 | -43.16299 | 27 ft | 114 kts | 177° |
| 2026-05-06 21:52 | -22.91368 | -43.16266 | 20 ft | 45 kts | 176° |
| 2026-05-06 21:52 | -22.91494 | -43.16260 | 20 ft | 15 kts | 189° |
| 2026-05-06 21:53 | -22.91520 | -43.16368 | 20 ft | 16 kts | 286° |
| 2026-05-06 21:53 | -22.91448 | -43.16455 | 22 ft | 15 kts | 316° |
| 2026-05-06 21:53 | -22.91385 | -43.16503 | 22 ft | 8 kts | 350° |
| 2026-05-06 21:53 | -22.91336 | -43.16506 | 22 ft | 6 kts | 359° |
| 2026-05-06 21:54 | -22.91286 | -43.16508 | 24 ft | 8 kts | 358° |
| 2026-05-06 21:54 | -22.91225 | -43.16511 | 22 ft | 10 kts | 356° |
| 2026-05-06 21:54 | -22.91153 | -43.16517 | 23 ft | 11 kts | 356° |
| 2026-05-06 21:54 | -22.91125 | -43.16519 | 23 ft | 5 kts | 354° |
| 2026-05-06 21:55 | -22.91094 | -43.16536 | 22 ft | 6 kts | 306° |
| 2026-05-06 21:55 | -22.91097 | -43.16575 | 22 ft | 5 kts | 266° |
| 2026-05-06 21:55 | -22.91098 | -43.16585 | 22 ft | 2 kts | 268° |
| 2026-05-06 21:55 | -22.91098 | -43.16593 | 22 ft | 0 kts | 267° |